Time;durP1;ratioP1;P1;durP2;ratioP2;P2;SDS_P1;SDS_P2;PMS_P1;PMS_P2;Temp;Humidity;BMP_temperature;BMP_pressure;BME280_temperature;BME280_humidity;BME280_pressure;Samples;Min_cycle;Max_cycle;Signal;HPM_P1;HPM_P2
2023/03/31 00:01:06;;;;;;;4.43;4.03;;;11.60;99.90;;;;;;5100678;28;20495;-70
2023/03/31 00:03:37;;;;;;;4.53;4.13;;;11.60;99.90;;;;;;5096819;28;20558;-69
2023/03/31 00:06:05;;;;;;;6.57;4.33;;;11.50;99.90;;;;;;5096416;28;20690;-69
2023/03/31 00:08:35;;;;;;;6.63;4.47;;;11.50;99.90;;;;;;5096245;28;20920;-69
2023/03/31 00:11:03;;;;;;;6.37;4.27;;;11.50;99.90;;;;;;5094098;28;20469;-71
2023/03/31 00:13:30;;;;;;;8.30;5.40;;;11.50;99.90;;;;;;5090766;28;20465;-71
2023/03/31 00:16:00;;;;;;;17.53;16.03;;;11.50;99.90;;;;;;5091349;28;21046;-70
2023/03/31 00:18:28;;;;;;;17.50;16.30;;;11.50;99.90;;;;;;5096988;28;20453;-70
2023/03/31 00:21:01;;;;;;;19.03;17.27;;;11.30;99.90;;;;;;5092493;28;20470;-70
2023/03/31 00:23:28;;;;;;;17.17;15.17;;;11.30;99.90;;;;;;5095943;28;20484;-71
2023/03/31 00:25:55;;;;;;;15.33;14.23;;;11.10;99.90;;;;;;5095188;28;20609;-71
2023/03/31 00:28:22;;;;;;;15.50;14.60;;;11.10;99.90;;;;;;5099854;28;21049;-71
2023/03/31 00:30:50;;;;;;;15.97;14.80;;;11.00;99.90;;;;;;5095458;28;20461;-71
2023/03/31 00:33:20;;;;;;;15.23;13.87;;;11.00;99.90;;;;;;5100082;28;20477;-72
2023/03/31 00:35:51;;;;;;;15.17;14.07;;;11.00;99.90;;;;;;5093459;28;21164;-71
2023/03/31 00:38:20;;;;;;;14.63;13.63;;;11.00;99.90;;;;;;5088234;28;20885;-71
2023/03/31 00:40:48;;;;;;;13.90;12.80;;;11.00;99.90;;;;;;5093812;28;20848;-71
2023/03/31 00:43:28;;;;;;;13.57;12.67;;;11.00;99.90;;;;;;5095917;28;21034;-71
2023/03/31 00:46:04;;;;;;;14.17;13.00;;;10.90;99.90;;;;;;5088758;28;20583;-71
2023/03/31 00:48:33;;;;;;;13.37;12.10;;;10.90;99.90;;;;;;5088585;28;20466;-71
2023/03/31 00:51:06;;;;;;;12.87;11.77;;;10.90;99.90;;;;;;5092067;28;20473;-72
2023/03/31 00:53:34;;;;;;;13.67;12.30;;;10.90;99.90;;;;;;5094001;28;20788;-72
2023/03/31 00:56:06;;;;;;;12.37;11.60;;;10.90;99.90;;;;;;5091845;28;20461;-72
2023/03/31 00:58:33;;;;;;;11.53;10.70;;;10.90;99.90;;;;;;5098200;28;20696;-71
2023/03/31 01:01:03;;;;;;;11.17;10.47;;;10.90;99.90;;;;;;5091820;28;20469;-72
2023/03/31 01:03:33;;;;;;;10.77;9.93;;;10.90;99.90;;;;;;5090577;28;20549;-72
2023/03/31 01:06:03;;;;;;;10.13;9.23;;;10.90;99.90;;;;;;5091310;28;20937;-71
2023/03/31 01:08:31;;;;;;;10.33;9.40;;;10.90;99.90;;;;;;5096885;28;20532;-71
2023/03/31 01:11:01;;;;;;;10.27;9.47;;;10.90;99.90;;;;;;5095428;28;20470;-70
2023/03/31 01:13:29;;;;;;;11.30;9.97;;;10.90;99.90;;;;;;5095926;28;20466;-70
2023/03/31 01:15:57;;;;;;;11.40;9.60;;;10.80;99.90;;;;;;5087219;28;20461;-70
2023/03/31 01:18:24;;;;;;;10.63;9.53;;;10.80;99.90;;;;;;5095916;28;20476;-70
2023/03/31 01:21:18;;;;;;;10.90;9.80;;;10.80;99.90;;;;;;5094264;28;20670;-69
2023/03/31 01:24:15;;;;;;;14.93;8.90;;;10.80;99.90;;;;;;5090863;28;20464;-70
2023/03/31 01:27:02;;;;;;;9.90;9.07;;;10.90;99.90;;;;;;5094664;28;20473;-70
2023/03/31 01:29:59;;;;;;;13.40;9.60;;;10.90;99.90;;;;;;5102066;28;20824;-68
2023/03/31 01:32:54;;;;;;;19.83;11.13;;;10.90;99.90;;;;;;5089084;28;20450;-69
2023/03/31 01:35:56;;;;;;;14.57;12.30;;;10.90;99.90;;;;;;5100307;28;20469;-69
2023/03/31 01:38:59;;;;;;;13.83;12.67;;;11.00;99.90;;;;;;5059683;28;20786;-69
2023/03/31 01:41:43;;;;;;;14.40;12.93;;;10.90;99.90;;;;;;5090077;28;20796;-70
2023/03/31 01:44:20;;;;;;;17.33;13.13;;;11.00;99.90;;;;;;5089118;28;20470;-70
2023/03/31 01:46:55;;;;;;;15.37;13.47;;;11.00;99.90;;;;;;5089849;28;20542;-70
2023/03/31 01:49:26;;;;;;;14.63;12.10;;;11.00;99.90;;;;;;5102020;28;20479;-69
2023/03/31 01:52:00;;;;;;;15.30;12.10;;;11.00;99.90;;;;;;5092264;28;20470;-70
2023/03/31 01:54:34;;;;;;;15.00;13.03;;;11.00;99.90;;;;;;5087299;28;20466;-70
2023/03/31 01:57:09;;;;;;;19.13;12.10;;;11.00;99.90;;;;;;5090166;28;20457;-71
2023/03/31 01:59:41;;;;;;;13.10;11.90;;;11.00;99.90;;;;;;5088437;28;20842;-70
2023/03/31 02:02:13;;;;;;;25.03;12.20;;;11.00;99.90;;;;;;5091877;28;21039;-69
2023/03/31 02:04:43;;;;;;;16.50;11.67;;;11.00;99.90;;;;;;5087403;28;20983;-69
2023/03/31 02:07:16;;;;;;;14.00;10.83;;;11.00;99.90;;;;;;5091149;28;20858;-69
2023/03/31 02:09:46;;;;;;;16.57;10.87;;;11.00;99.90;;;;;;5089235;28;20804;-69
2023/03/31 02:12:16;;;;;;;14.37;10.00;;;11.00;99.90;;;;;;5087276;28;20466;-71
2023/03/31 02:14:47;;;;;;;21.93;12.27;;;11.00;99.90;;;;;;5091991;28;20845;-71
2023/03/31 02:17:18;;;;;;;22.33;10.03;;;11.00;99.90;;;;;;5092398;28;20469;-69
2023/03/31 02:19:50;;;;;;;11.83;10.20;;;11.00;99.90;;;;;;5094799;28;20496;-70
2023/03/31 02:22:19;;;;;;;15.60;11.10;;;11.00;99.90;;;;;;5093806;28;20479;-69
2023/03/31 02:24:47;;;;;;;15.20;10.20;;;11.00;99.90;;;;;;5096603;28;20502;-70
2023/03/31 02:27:20;;;;;;;14.53;10.80;;;11.00;99.90;;;;;;5092627;28;20522;-70
2023/03/31 02:29:48;;;;;;;12.33;10.10;;;11.00;99.90;;;;;;5099361;28;20461;-70
2023/03/31 02:32:19;;;;;;;19.03;9.87;;;11.00;99.90;;;;;;5089617;28;20496;-70
2023/03/31 02:34:47;;;;;;;18.50;10.13;;;11.00;99.90;;;;;;5093867;28;20508;-71
2023/03/31 02:37:15;;;;;;;18.43;11.53;;;10.90;99.90;;;;;;5093995;28;20457;-70
2023/03/31 02:39:44;;;;;;;12.40;10.10;;;10.90;99.90;;;;;;5090225;28;20854;-71
2023/03/31 02:42:12;;;;;;;19.60;10.67;;;10.90;99.90;;;;;;5090897;28;21034;-70
2023/03/31 02:44:41;;;;;;;13.40;9.77;;;10.90;99.90;;;;;;5091711;28;20536;-71
2023/03/31 02:47:11;;;;;;;14.80;10.80;;;10.90;99.90;;;;;;5088942;28;20458;-71
2023/03/31 02:49:41;;;;;;;17.27;10.47;;;10.90;99.90;;;;;;5093900;28;21287;-72
2023/03/31 02:52:45;;;;;;;11.53;9.83;;;10.90;99.90;;;;;;5091516;28;20450;-70
2023/03/31 02:55:37;;;;;;;15.23;10.27;;;10.80;99.90;;;;;;5080532;28;20592;-71
2023/03/31 02:58:26;;;;;;;12.40;10.10;;;10.80;99.90;;;;;;5092045;28;20461;-71
2023/03/31 03:01:14;;;;;;;17.80;10.50;;;10.80;99.90;;;;;;5095704;28;20461;-69
2023/03/31 03:03:50;;;;;;;19.20;10.63;;;10.80;99.90;;;;;;5088556;28;20519;-70
2023/03/31 03:06:32;;;;;;;20.37;10.67;;;10.80;99.90;;;;;;5091109;28;20489;-70
2023/03/31 03:09:07;;;;;;;12.47;10.00;;;10.70;99.90;;;;;;5096011;28;20466;-70
2023/03/31 03:11:41;;;;;;;23.17;10.80;;;10.70;99.90;;;;;;5093756;28;20901;-70
2023/03/31 03:14:15;;;;;;;11.83;10.33;;;10.60;99.90;;;;;;5089747;28;20856;-69
2023/03/31 03:16:48;;;;;;;14.50;10.63;;;10.60;99.90;;;;;;5092066;28;20477;-69
2023/03/31 03:19:20;;;;;;;15.17;10.90;;;10.70;99.90;;;;;;5098290;28;20465;-70
2023/03/31 03:21:47;;;;;;;14.97;11.93;;;10.60;99.90;;;;;;5091193;28;20473;-71
2023/03/31 03:24:15;;;;;;;12.53;11.23;;;10.60;99.90;;;;;;5085546;28;20462;-70
2023/03/31 03:26:43;;;;;;;13.70;11.00;;;10.70;99.90;;;;;;5090645;28;20489;-71
2023/03/31 03:29:12;;;;;;;15.50;10.23;;;10.70;99.90;;;;;;5089499;28;20538;-69
2023/03/31 03:31:39;;;;;;;12.37;11.03;;;10.80;99.90;;;;;;5087363;28;20518;-70
2023/03/31 03:34:08;;;;;;;12.23;11.10;;;10.80;99.90;;;;;;5095301;28;20563;-69
2023/03/31 03:36:35;;;;;;;15.07;11.13;;;10.70;99.90;;;;;;5092735;28;20453;-69
2023/03/31 03:39:02;;;;;;;12.17;11.07;;;10.80;99.90;;;;;;5085554;28;20468;-69
2023/03/31 03:41:30;;;;;;;12.93;11.83;;;10.70;99.90;;;;;;5087062;28;20808;-69
2023/03/31 03:43:57;;;;;;;17.13;12.00;;;10.60;99.90;;;;;;5088888;28;20467;-70
2023/03/31 03:46:25;;;;;;;13.37;11.97;;;10.60;99.90;;;;;;5094578;28;20576;-69
2023/03/31 03:48:52;;;;;;;14.93;13.40;;;10.50;99.90;;;;;;5088354;28;20465;-72
2023/03/31 03:51:21;;;;;;;13.30;12.10;;;10.50;99.90;;;;;;5092354;28;20473;-70
2023/03/31 03:53:48;;;;;;;12.87;11.93;;;10.50;99.90;;;;;;5091679;28;20955;-71
2023/03/31 03:56:14;;;;;;;13.60;11.97;;;10.50;99.90;;;;;;5093644;28;20756;-70
2023/03/31 03:58:41;;;;;;;18.03;12.13;;;10.60;99.90;;;;;;5088159;28;20469;-70
2023/03/31 04:01:08;;;;;;;15.30;11.83;;;10.50;99.90;;;;;;5092105;28;20481;-69
2023/03/31 04:03:35;;;;;;;13.63;12.50;;;10.60;99.90;;;;;;5087314;28;20454;-70
2023/03/31 04:06:02;;;;;;;12.40;11.40;;;10.50;99.90;;;;;;5086844;28;20568;-71
2023/03/31 04:08:31;;;;;;;12.80;11.80;;;10.50;99.90;;;;;;5085299;28;20489;-69
2023/03/31 04:10:58;;;;;;;14.70;12.43;;;10.50;99.90;;;;;;5089288;28;20461;-70
2023/03/31 04:13:24;;;;;;;13.50;12.43;;;10.50;99.90;;;;;;5086688;28;20472;-69
2023/03/31 04:15:52;;;;;;;13.77;12.40;;;10.40;99.90;;;;;;5090785;28;20953;-70
2023/03/31 04:18:21;;;;;;;13.57;12.50;;;10.50;99.90;;;;;;5095674;28;20465;-70
2023/03/31 04:21:02;;;;;;;14.10;13.10;;;10.40;99.90;;;;;;5087523;28;20837;-70
2023/03/31 04:23:31;;;;;;;14.43;12.93;;;10.40;99.90;;;;;;5084921;28;20952;-70
2023/03/31 04:25:57;;;;;;;12.30;11.63;;;10.40;99.90;;;;;;5094014;28;21111;-70
2023/03/31 04:28:25;;;;;;;13.07;12.13;;;10.40;99.90;;;;;;5094052;28;20457;-69
2023/03/31 04:30:57;;;;;;;14.70;13.70;;;10.40;99.90;;;;;;5091927;28;20964;-69
2023/03/31 04:33:24;;;;;;;14.67;13.67;;;10.40;99.90;;;;;;5090649;28;21041;-69
2023/03/31 04:35:51;;;;;;;14.13;12.80;;;10.30;99.90;;;;;;5093055;28;20488;-70
2023/03/31 04:38:19;;;;;;;14.57;13.47;;;10.30;99.90;;;;;;5092955;28;20454;-69
2023/03/31 04:40:49;;;;;;;14.70;13.37;;;10.20;99.90;;;;;;5095809;28;21397;-71
2023/03/31 04:43:17;;;;;;;13.83;12.60;;;10.20;99.90;;;;;;5092569;28;21123;-69
2023/03/31 04:45:44;;;;;;;15.70;12.50;;;10.10;99.90;;;;;;5095731;28;20859;-70
2023/03/31 04:48:11;;;;;;;14.00;12.73;;;10.10;99.90;;;;;;5092969;28;20476;-70
2023/03/31 04:50:38;;;;;;;13.83;12.63;;;10.10;99.90;;;;;;5098152;28;20469;-70
2023/03/31 04:53:06;;;;;;;13.80;12.73;;;10.10;99.90;;;;;;5092815;28;20468;-69
2023/03/31 04:55:33;;;;;;;13.33;12.33;;;10.10;99.90;;;;;;5096893;28;20465;-71
2023/03/31 04:58:01;;;;;;;12.57;11.93;;;10.10;99.90;;;;;;5090767;28;20445;-71
2023/03/31 05:00:29;;;;;;;12.80;11.60;;;10.20;99.90;;;;;;5096160;28;20465;-70
2023/03/31 05:02:57;;;;;;;13.00;11.97;;;10.20;99.90;;;;;;5087514;28;20548;-69
2023/03/31 05:05:24;;;;;;;11.73;11.03;;;10.20;99.90;;;;;;5094026;28;20526;-70
2023/03/31 05:07:51;;;;;;;13.10;11.93;;;10.30;99.90;;;;;;5092905;28;20461;-71
2023/03/31 05:10:18;;;;;;;10.57;9.80;;;10.30;99.90;;;;;;5096479;28;20457;-70
2023/03/31 05:12:45;;;;;;;10.93;10.20;;;10.40;99.90;;;;;;5092854;28;21022;-70
2023/03/31 05:15:13;;;;;;;9.70;9.00;;;10.50;99.90;;;;;;5094625;28;20469;-69
2023/03/31 05:17:40;;;;;;;16.57;15.30;;;10.50;99.90;;;;;;5091952;28;20863;-68
2023/03/31 05:20:08;;;;;;;15.77;14.77;;;10.50;99.90;;;;;;5088496;28;20893;-69
2023/03/31 05:22:37;;;;;;;15.67;14.37;;;10.50;99.90;;;;;;5091061;28;20823;-70
2023/03/31 05:25:06;;;;;;;14.60;13.47;;;10.40;99.90;;;;;;5096791;28;20844;-69
2023/03/31 05:27:34;;;;;;;13.70;12.70;;;10.40;99.90;;;;;;5092710;28;20490;-70
2023/03/31 05:30:02;;;;;;;14.03;12.70;;;10.40;99.90;;;;;;5098392;28;20461;-71
2023/03/31 05:32:31;;;;;;;13.07;12.10;;;10.30;99.90;;;;;;5091958;28;20472;-71
2023/03/31 05:34:58;;;;;;;12.90;12.13;;;10.30;99.90;;;;;;5092671;28;21154;-71
2023/03/31 05:37:25;;;;;;;14.70;13.80;;;10.30;99.90;;;;;;5091016;28;20831;-72
2023/03/31 05:39:52;;;;;;;14.23;13.03;;;10.40;99.90;;;;;;5091022;28;20467;-69
2023/03/31 05:42:20;;;;;;;13.13;12.50;;;10.40;99.90;;;;;;5094457;28;20489;-69
2023/03/31 05:44:47;;;;;;;13.20;12.33;;;10.40;99.90;;;;;;5089427;28;20466;-70
2023/03/31 05:47:14;;;;;;;12.80;12.10;;;10.40;99.90;;;;;;5090503;28;20488;-72
2023/03/31 05:49:43;;;;;;;12.90;12.10;;;10.40;99.90;;;;;;5088270;28;20458;-71
2023/03/31 05:52:11;;;;;;;13.03;12.40;;;10.40;99.90;;;;;;5096250;28;20975;-70
2023/03/31 05:54:37;;;;;;;12.40;11.60;;;10.30;99.90;;;;;;5090439;28;21069;-72
2023/03/31 05:57:06;;;;;;;12.10;10.97;;;10.30;99.90;;;;;;5094073;28;20465;-69
2023/03/31 05:59:34;;;;;;;11.90;11.00;;;10.40;99.90;;;;;;5094656;28;20464;-69
2023/03/31 06:02:01;;;;;;;10.80;10.30;;;10.40;99.90;;;;;;5096232;28;20465;-71
2023/03/31 06:04:30;;;;;;;10.77;9.83;;;10.40;99.90;;;;;;5089487;28;21323;-73
2023/03/31 06:06:59;;;;;;;11.70;10.60;;;10.40;99.90;;;;;;5090109;28;20487;-72
2023/03/31 06:09:27;;;;;;;10.90;10.10;;;10.40;99.90;;;;;;5089318;28;20458;-70
2023/03/31 06:11:55;;;;;;;9.70;9.10;;;10.40;99.90;;;;;;5094626;28;20462;-70
2023/03/31 06:14:22;;;;;;;10.93;10.20;;;10.40;99.90;;;;;;5093134;28;20561;-71
2023/03/31 06:16:50;;;;;;;9.80;9.20;;;10.40;99.90;;;;;;5095406;28;20470;-70
2023/03/31 06:19:17;;;;;;;9.40;8.90;;;10.40;99.90;;;;;;5092239;28;20461;-70
2023/03/31 06:21:44;;;;;;;15.57;10.20;;;10.40;99.90;;;;;;5090578;28;20988;-71
2023/03/31 06:24:12;;;;;;;13.83;12.13;;;10.40;99.90;;;;;;5093938;28;20797;-69
2023/03/31 06:26:39;;;;;;;12.53;11.57;;;10.40;99.90;;;;;;5092674;28;20514;-71
2023/03/31 06:29:06;;;;;;;12.10;11.50;;;10.40;99.90;;;;;;5094700;28;20458;-69
2023/03/31 06:31:33;;;;;;;13.10;12.30;;;10.40;99.90;;;;;;5090202;28;20472;-70
2023/03/31 06:34:00;;;;;;;12.77;11.97;;;10.40;99.90;;;;;;5094184;28;20839;-69
2023/03/31 06:36:27;;;;;;;12.07;11.27;;;10.40;99.90;;;;;;5095118;28;20458;-70
2023/03/31 06:38:54;;;;;;;12.53;11.80;;;10.40;99.90;;;;;;5087008;28;20457;-71
2023/03/31 06:41:22;;;;;;;11.37;10.87;;;10.40;99.90;;;;;;5090308;28;20454;-70
2023/03/31 06:43:50;;;;;;;11.13;10.43;;;10.50;99.90;;;;;;5089374;28;20459;-69
2023/03/31 06:46:17;;;;;;;11.57;10.27;;;10.60;99.90;;;;;;5095631;28;20481;-71
2023/03/31 06:48:45;;;;;;;11.27;10.30;;;10.70;99.90;;;;;;5087278;28;20471;-72
2023/03/31 06:51:12;;;;;;;10.43;9.60;;;10.80;99.90;;;;;;5088599;28;20473;-69
2023/03/31 06:53:39;;;;;;;9.47;8.93;;;10.90;99.90;;;;;;5087280;28;20473;-70
2023/03/31 06:56:06;;;;;;;9.90;9.00;;;11.00;99.90;;;;;;5093598;28;20450;-70
2023/03/31 06:58:35;;;;;;;8.10;7.67;;;11.20;99.90;;;;;;5085843;28;20492;-71
2023/03/31 07:01:03;;;;;;;8.90;8.00;;;11.30;99.90;;;;;;5090110;28;20458;-70
2023/03/31 07:03:30;;;;;;;8.27;7.57;;;11.30;99.90;;;;;;5086692;28;20465;-71
2023/03/31 07:05:57;;;;;;;7.40;6.67;;;11.50;99.90;;;;;;5089781;28;20804;-70
2023/03/31 07:08:24;;;;;;;8.47;5.87;;;11.50;99.90;;;;;;5089067;28;20472;-69
2023/03/31 07:10:56;;;;;;;7.80;6.50;;;11.70;99.90;;;;;;5093073;28;20700;-69
2023/03/31 07:13:25;;;;;;;7.43;6.20;;;11.80;99.90;;;;;;5090892;28;20508;-71
2023/03/31 07:15:54;;;;;;;8.80;6.27;;;11.90;99.90;;;;;;5089458;28;20485;-69
2023/03/31 07:18:24;;;;;;;7.27;6.60;;;12.10;99.90;;;;;;5093093;28;20464;-70
2023/03/31 07:20:52;;;;;;;12.03;6.50;;;12.20;99.90;;;;;;5087367;28;20827;-72
2023/03/31 07:23:20;;;;;;;7.50;6.23;;;12.40;99.90;;;;;;5091731;28;20453;-70
2023/03/31 07:25:48;;;;;;;8.50;6.50;;;12.70;99.90;;;;;;5094141;28;20473;-71
2023/03/31 07:28:15;;;;;;;10.63;7.10;;;12.90;99.90;;;;;;5088050;28;21082;-70
2023/03/31 07:30:42;;;;;;;8.30;7.50;;;13.10;99.90;;;;;;5086941;28;20469;-70
2023/03/31 07:33:10;;;;;;;8.20;7.70;;;13.10;99.90;;;;;;5085321;28;20486;-70
2023/03/31 07:35:39;;;;;;;8.97;8.37;;;13.10;99.90;;;;;;5090974;28;20556;-70
2023/03/31 07:38:08;;;;;;;10.23;9.23;;;12.90;99.90;;;;;;5095288;28;20454;-72
2023/03/31 07:40:35;;;;;;;10.20;8.73;;;12.90;99.90;;;;;;5081647;28;20559;-70
2023/03/31 07:43:02;;;;;;;11.40;9.20;;;13.00;99.90;;;;;;5085357;28;20486;-70
2023/03/31 07:45:30;;;;;;;14.10;10.03;;;12.90;99.90;;;;;;5085499;28;20990;-69
2023/03/31 07:47:57;;;;;;;10.50;9.70;;;12.80;99.90;;;;;;5080506;28;20490;-71
2023/03/31 07:50:25;;;;;;;16.40;10.80;;;12.70;99.90;;;;;;5087263;28;20461;-69
2023/03/31 07:52:52;;;;;;;11.00;9.87;;;12.70;99.90;;;;;;5088054;28;20825;-69
2023/03/31 07:55:20;;;;;;;10.17;8.77;;;12.60;99.90;;;;;;5085701;28;20462;-72
2023/03/31 07:57:47;;;;;;;9.97;7.87;;;12.50;99.90;;;;;;5097216;28;20552;-69
2023/03/31 08:00:15;;;;;;;8.43;7.40;;;12.40;99.90;;;;;;5095119;28;20494;-70
2023/03/31 08:02:43;;;;;;;8.30;7.70;;;12.50;99.90;;;;;;5091957;28;20470;-71
2023/03/31 08:05:15;;;;;;;10.43;8.17;;;12.60;99.90;;;;;;5091815;28;20457;-70
2023/03/31 08:07:45;;;;;;;10.30;8.23;;;12.70;99.90;;;;;;5097713;28;20493;-69
2023/03/31 08:10:15;;;;;;;12.70;7.40;;;12.90;99.90;;;;;;5095507;28;20453;-69
2023/03/31 08:12:42;;;;;;;8.87;8.07;;;13.20;99.90;;;;;;5091456;28;20462;-70
2023/03/31 08:15:09;;;;;;;11.63;8.70;;;13.30;99.90;;;;;;5094428;28;20477;-70
2023/03/31 08:17:38;;;;;;;10.73;9.73;;;13.50;99.90;;;;;;5094657;28;20828;-69
2023/03/31 08:20:08;;;;;;;13.37;9.63;;;13.60;99.90;;;;;;5099362;28;20471;-69
2023/03/31 08:22:34;;;;;;;12.80;11.30;;;13.70;99.90;;;;;;5093589;28;20489;-70
2023/03/31 08:25:04;;;;;;;15.63;12.10;;;13.80;99.90;;;;;;5099351;28;20499;-70
2023/03/31 08:27:33;;;;;;;12.30;11.30;;;14.00;99.90;;;;;;5100149;28;20573;-69
2023/03/31 08:30:02;;;;;;;13.73;11.70;;;14.20;99.90;;;;;;5093052;28;20471;-70
2023/03/31 08:32:28;;;;;;;13.83;12.63;;;14.40;99.90;;;;;;5093072;28;20514;-71
2023/03/31 08:34:56;;;;;;;14.03;12.87;;;14.40;99.90;;;;;;5093767;28;20570;-71
2023/03/31 08:37:23;;;;;;;18.40;14.00;;;14.30;99.90;;;;;;5096964;28;20461;-70
2023/03/31 08:39:49;;;;;;;14.60;13.10;;;14.40;99.90;;;;;;5099575;28;20457;-71
2023/03/31 08:42:25;;;;;;;15.47;13.83;;;14.50;99.90;;;;;;5100151;28;21085;-71
2023/03/31 08:44:58;;;;;;;15.67;14.10;;;14.60;99.90;;;;;;5097226;28;20549;-71
2023/03/31 08:47:27;;;;;;;14.90;13.63;;;14.60;99.90;;;;;;5092796;28;20947;-69
2023/03/31 08:49:58;;;;;;;14.77;13.37;;;14.60;99.90;;;;;;5093410;28;20461;-70
2023/03/31 08:52:29;;;;;;;18.43;14.70;;;14.50;99.90;;;;;;5090445;28;21007;-71
2023/03/31 08:54:59;;;;;;;13.87;12.87;;;14.30;99.90;;;;;;5098414;28;20458;-70
2023/03/31 08:57:32;;;;;;;19.40;13.27;;;14.10;99.90;;;;;;5103226;28;20450;-70
2023/03/31 09:00:05;;;;;;;14.03;12.73;;;14.20;99.90;;;;;;5103457;28;20823;-70
2023/03/31 09:02:42;;;;;;;15.47;13.80;;;14.20;99.90;;;;;;5095098;28;20482;-69
2023/03/31 09:05:42;;;;;;;16.63;14.77;;;14.40;99.90;;;;;;5096539;28;20464;-71
2023/03/31 09:08:19;;;;;;;15.47;14.00;;;14.60;99.90;;;;;;5093392;28;20576;-70
2023/03/31 09:10:53;;;;;;;15.90;14.80;;;14.70;99.90;;;;;;5095036;28;20824;-71
2023/03/31 09:13:44;;;;;;;15.37;14.13;;;14.90;99.90;;;;;;5088830;28;21180;-70
2023/03/31 09:16:15;;;;;;;16.73;14.97;;;14.80;99.90;;;;;;5087480;28;20466;-71
2023/03/31 09:18:45;;;;;;;16.63;15.10;;;15.00;99.90;;;;;;5089862;28;20462;-70
2023/03/31 09:21:19;;;;;;;16.77;15.33;;;15.20;99.90;;;;;;5094917;28;20497;-71
2023/03/31 09:23:51;;;;;;;16.37;14.87;;;15.00;99.90;;;;;;5097473;28;20558;-71
2023/03/31 09:26:27;;;;;;;16.10;14.47;;;14.90;99.90;;;;;;5094850;28;20468;-71
2023/03/31 09:28:59;;;;;;;21.90;17.53;;;14.80;99.90;;;;;;5097624;28;20461;-69
2023/03/31 09:31:27;;;;;;;22.30;20.00;;;14.30;99.90;;;;;;5094719;28;20470;-69
2023/03/31 09:34:00;;;;;;;23.20;20.70;;;13.40;99.90;;;;;;5097434;28;20838;-69
2023/03/31 09:36:27;;;;;;;20.73;18.80;;;12.90;99.90;;;;;;5097422;28;20986;-70
2023/03/31 09:38:54;;;;;;;21.80;17.70;;;12.50;99.90;;;;;;5091340;28;20536;-70
2023/03/31 09:41:21;;;;;;;19.50;16.63;;;12.30;99.90;;;;;;5098665;28;20454;-70
2023/03/31 09:43:50;;;;;;;27.00;15.60;;;12.40;99.90;;;;;;5096029;28;20453;-71
2023/03/31 09:46:24;;;;;;;18.43;13.57;;;12.60;99.90;;;;;;5090754;28;20482;-70
2023/03/31 09:48:58;;;;;;;16.23;11.53;;;12.70;99.90;;;;;;5088707;28;20493;-70
2023/03/31 09:51:30;;;;;;;17.77;11.00;;;12.80;99.90;;;;;;5089572;28;20472;-70
2023/03/31 09:54:01;;;;;;;16.80;10.90;;;12.90;99.90;;;;;;5090462;28;20457;-71
2023/03/31 09:56:51;;;;;;;11.27;10.13;;;13.20;99.90;;;;;;5100544;28;20457;-70
2023/03/31 09:59:20;;;;;;;18.97;11.60;;;13.20;99.90;;;;;;5102378;28;20453;-71
2023/03/31 10:01:51;;;;;;;12.57;10.97;;;13.40;99.90;;;;;;5093593;28;20470;-71
2023/03/31 10:04:22;;;;;;;19.07;11.50;;;13.80;99.90;;;;;;5097730;28;20519;-70
2023/03/31 10:06:51;;;;;;;13.03;12.03;;;14.00;99.90;;;;;;5093320;28;20458;-71
2023/03/31 10:09:20;;;;;;;26.07;14.80;;;14.40;99.90;;;;;;5091118;28;20558;-70
2023/03/31 10:11:56;;;;;;;14.83;13.70;;;14.50;99.90;;;;;;5093538;28;20844;-71
2023/03/31 10:14:38;;;;;;;16.63;14.83;;;14.40;99.90;;;;;;5093880;28;20813;-70
2023/03/31 10:17:06;;;;;;;17.03;15.50;;;14.40;99.90;;;;;;5093283;28;20469;-70
2023/03/31 10:19:36;;;;;;;18.00;16.30;;;14.70;99.90;;;;;;5094564;28;21015;-70
2023/03/31 10:22:06;;;;;;;18.77;16.90;;;14.90;99.90;;;;;;5095699;28;20458;-71
2023/03/31 10:24:41;;;;;;;21.83;18.07;;;15.40;99.90;;;;;;5099842;28;20467;-69
2023/03/31 10:27:18;;;;;;;19.23;17.40;;;15.40;99.90;;;;;;5093789;28;20480;-70
2023/03/31 10:29:45;;;;;;;26.40;24.00;;;15.00;99.90;;;;;;5093686;28;20473;-71
2023/03/31 10:32:22;;;;;;;21.90;20.20;;;13.30;99.90;;;;;;5094992;28;20955;-71
2023/03/31 10:34:50;;;;;;;19.27;17.67;;;11.80;99.90;;;;;;5091867;28;20580;-72
2023/03/31 10:37:19;;;;;;;18.77;17.30;;;11.40;99.90;;;;;;5089844;28;20476;-71
2023/03/31 10:39:46;;;;;;;16.20;14.80;;;11.30;99.90;;;;;;5093827;28;20519;-70
2023/03/31 10:42:21;;;;;;;16.10;14.43;;;11.40;99.90;;;;;;5087261;28;20589;-72
2023/03/31 10:44:48;;;;;;;13.03;12.07;;;11.50;99.90;;;;;;5091751;28;20462;-71
2023/03/31 10:47:21;;;;;;;17.03;12.40;;;11.60;99.90;;;;;;5090870;28;21272;-72
2023/03/31 10:49:51;;;;;;;11.83;10.90;;;11.80;99.90;;;;;;5097413;28;20576;-70
2023/03/31 10:52:20;;;;;;;10.77;9.73;;;12.00;99.90;;;;;;5093261;28;21081;-72
2023/03/31 10:54:49;;;;;;;9.90;8.93;;;12.10;99.90;;;;;;5092045;28;20456;-71
2023/03/31 10:57:17;;;;;;;9.47;8.70;;;12.10;99.90;;;;;;5097246;28;20957;-70
2023/03/31 11:00:00;;;;;;;11.37;8.57;;;12.20;99.90;;;;;;5091275;28;20976;-71
2023/03/31 11:02:58;;;;;;;12.97;9.20;;;12.40;99.90;;;;;;5093827;28;20463;-70
2023/03/31 11:05:30;;;;;;;13.90;9.20;;;12.60;99.90;;;;;;5088663;28;20480;-70
2023/03/31 11:08:06;;;;;;;9.80;9.30;;;12.70;99.90;;;;;;5090568;28;20489;-70
2023/03/31 11:10:42;;;;;;;10.50;9.90;;;12.90;99.90;;;;;;5085563;28;20462;-70
2023/03/31 11:13:17;;;;;;;10.13;9.53;;;13.10;99.90;;;;;;5096871;28;20453;-70
2023/03/31 11:15:55;;;;;;;11.20;10.40;;;13.40;99.90;;;;;;5090919;28;20800;-70
2023/03/31 11:18:44;;;;;;;11.40;10.40;;;13.60;99.90;;;;;;5089271;28;20461;-70
2023/03/31 11:21:22;;;;;;;11.40;10.60;;;13.80;99.90;;;;;;5087852;28;20496;-72
2023/03/31 11:23:58;;;;;;;11.87;10.67;;;14.20;99.90;;;;;;5088267;28;20536;-69
2023/03/31 11:26:40;;;;;;;12.27;11.30;;;14.30;99.90;;;;;;5092090;28;20634;-70
2023/03/31 11:29:20;;;;;;;14.97;12.00;;;14.60;99.90;;;;;;5096590;28;20481;-71
2023/03/31 11:31:55;;;;;;;13.57;12.27;;;14.70;99.90;;;;;;5087177;28;20480;-69
2023/03/31 11:34:44;;;;;;;14.83;13.27;;;14.90;99.90;;;;;;5097854;28;21034;-71
2023/03/31 11:37:30;;;;;;;14.70;13.70;;;15.00;99.90;;;;;;5089691;28;20950;-71
2023/03/31 11:40:12;;;;;;;15.50;14.20;;;15.20;99.90;;;;;;5089590;28;20820;-70
2023/03/31 11:42:46;;;;;;;18.53;14.80;;;15.50;99.90;;;;;;5091027;28;20492;-70
2023/03/31 11:45:18;;;;;;;17.00;15.13;;;16.00;99.90;;;;;;5095052;28;20960;-71
2023/03/31 11:47:50;;;;;;;16.83;15.43;;;16.50;99.90;;;;;;5094354;28;20482;-70
2023/03/31 11:50:22;;;;;;;22.00;15.00;;;15.90;99.90;;;;;;5101304;28;20465;-70
2023/03/31 11:52:56;;;;;;;17.33;15.60;;;15.90;99.90;;;;;;5094978;28;20458;-70
2023/03/31 11:55:26;;;;;;;17.23;15.30;;;15.40;99.90;;;;;;5088874;28;20462;-70
2023/03/31 11:58:02;;;;;;;17.33;15.57;;;15.00;99.90;;;;;;5091635;28;21024;-69
2023/03/31 12:00:32;;;;;;;15.30;13.90;;;14.70;99.90;;;;;;5088752;28;20461;-70
2023/03/31 12:03:04;;;;;;;19.57;15.10;;;14.80;99.90;;;;;;5097342;28;20538;-70
2023/03/31 12:05:35;;;;;;;17.17;15.67;;;15.10;99.90;;;;;;5097811;28;20457;-70
2023/03/31 12:08:07;;;;;;;16.70;15.40;;;15.50;99.90;;;;;;5096877;28;20488;-69
2023/03/31 12:10:36;;;;;;;17.90;16.10;;;15.70;99.90;;;;;;5096328;28;20461;-72
2023/03/31 12:13:15;;;;;;;17.83;16.10;;;15.70;99.90;;;;;;5095204;28;20836;-70
2023/03/31 12:15:45;;;;;;;18.50;16.70;;;15.50;99.90;;;;;;5090413;28;20466;-71
2023/03/31 12:18:15;;;;;;;18.80;16.20;;;15.40;99.90;;;;;;5091588;28;21012;-71
2023/03/31 12:20:49;;;;;;;17.93;16.13;;;15.70;99.90;;;;;;5089974;28;20494;-71
2023/03/31 12:23:19;;;;;;;17.67;16.10;;;15.90;99.90;;;;;;5090294;28;20458;-72
2023/03/31 12:25:52;;;;;;;17.60;15.87;;;16.40;99.90;;;;;;5096419;28;20445;-71
2023/03/31 12:28:20;;;;;;;19.17;16.53;;;16.60;99.90;;;;;;5101315;28;20599;-71
2023/03/31 12:30:48;;;;;;;18.10;16.50;;;16.60;99.90;;;;;;5095834;28;20469;-70
2023/03/31 12:33:20;;;;;;;18.67;16.67;;;16.70;99.90;;;;;;5091796;28;20493;-70
2023/03/31 12:36:03;;;;;;;18.47;16.87;;;16.70;99.90;;;;;;5093591;28;20462;-71
2023/03/31 12:38:44;;;;;;;17.83;16.53;;;16.20;99.90;;;;;;5097017;28;20453;-70
2023/03/31 12:41:16;;;;;;;17.77;16.40;;;15.90;99.90;;;;;;5100153;28;20472;-70
2023/03/31 12:44:02;;;;;;;17.23;15.43;;;16.00;99.90;;;;;;5092782;28;20539;-69
2023/03/31 12:46:41;;;;;;;16.30;15.00;;;15.90;99.90;;;;;;5090257;28;20469;-69
2023/03/31 12:49:21;;;;;;;16.47;15.00;;;16.10;99.90;;;;;;5093237;28;20497;-70
2023/03/31 12:51:59;;;;;;;17.20;15.90;;;16.50;99.90;;;;;;5101332;28;20465;-71